sensor_id;sensor_type;location;lat;lon;timestamp;temperature;humidity
22008;DHT22;11168;56.976;24.168;2024-03-23T00:54:49;6.60;99.90
22008;DHT22;11168;56.976;24.168;2024-03-23T00:57:17;6.50;99.90
22008;DHT22;11168;56.976;24.168;2024-03-23T00:59:43;6.50;99.90
22008;DHT22;11168;56.976;24.168;2024-03-23T01:02:09;6.50;99.90
22008;DHT22;11168;56.976;24.168;2024-03-23T01:04:34;6.50;99.90
22008;DHT22;11168;56.976;24.168;2024-03-23T01:07:00;6.50;99.90
22008;DHT22;11168;56.976;24.168;2024-03-23T01:09:27;6.50;99.90
22008;DHT22;11168;56.976;24.168;2024-03-23T01:11:53;6.50;99.90
22008;DHT22;11168;56.976;24.168;2024-03-23T01:14:19;6.50;99.90
22008;DHT22;11168;56.976;24.168;2024-03-23T01:16:45;6.50;99.90
22008;DHT22;11168;56.976;24.168;2024-03-23T01:19:11;6.50;99.90
22008;DHT22;11168;56.976;24.168;2024-03-23T01:21:37;6.50;99.90
22008;DHT22;11168;56.976;24.168;2024-03-23T01:24:03;6.50;99.90
22008;DHT22;11168;56.976;24.168;2024-03-23T01:26:29;6.50;99.90
22008;DHT22;11168;56.976;24.168;2024-03-23T01:28:55;6.50;99.90
22008;DHT22;11168;56.976;24.168;2024-03-23T01:31:21;6.50;99.90
22008;DHT22;11168;56.976;24.168;2024-03-23T01:33:47;6.50;99.90
22008;DHT22;11168;56.976;24.168;2024-03-23T01:36:13;6.40;99.90
22008;DHT22;11168;56.976;24.168;2024-03-23T01:38:39;6.40;99.90
22008;DHT22;11168;56.976;24.168;2024-03-23T01:41:05;6.40;99.90
22008;DHT22;11168;56.976;24.168;2024-03-23T01:43:31;6.40;99.90
22008;DHT22;11168;56.976;24.168;2024-03-23T01:45:59;6.40;99.90
22008;DHT22;11168;56.976;24.168;2024-03-23T01:48:25;6.40;99.90
22008;DHT22;11168;56.976;24.168;2024-03-23T01:50:51;6.40;99.90
22008;DHT22;11168;56.976;24.168;2024-03-23T01:53:17;6.40;99.90
22008;DHT22;11168;56.976;24.168;2024-03-23T01:55:45;6.40;99.90
22008;DHT22;11168;56.976;24.168;2024-03-23T01:58:11;6.40;99.90
22008;DHT22;11168;56.976;24.168;2024-03-23T02:00:37;6.40;99.90
22008;DHT22;11168;56.976;24.168;2024-03-23T02:03:25;6.40;99.90
22008;DHT22;11168;56.976;24.168;2024-03-23T02:05:53;6.40;99.90
22008;DHT22;11168;56.976;24.168;2024-03-23T02:08:21;6.40;99.90
22008;DHT22;11168;56.976;24.168;2024-03-23T02:10:48;6.30;99.90
22008;DHT22;11168;56.976;24.168;2024-03-23T02:13:15;6.30;99.90
22008;DHT22;11168;56.976;24.168;2024-03-23T02:15:42;6.30;99.90
22008;DHT22;11168;56.976;24.168;2024-03-23T02:18:08;6.30;99.90
22008;DHT22;11168;56.976;24.168;2024-03-23T02:20:37;6.30;99.90
22008;DHT22;11168;56.976;24.168;2024-03-23T02:23:04;6.20;99.90
22008;DHT22;11168;56.976;24.168;2024-03-23T02:25:35;6.20;99.90
22008;DHT22;11168;56.976;24.168;2024-03-23T02:28:01;6.20;99.90
22008;DHT22;11168;56.976;24.168;2024-03-23T02:30:26;6.20;99.90
22008;DHT22;11168;56.976;24.168;2024-03-23T02:32:52;6.20;99.90
22008;DHT22;11168;56.976;24.168;2024-03-23T02:35:18;6.10;99.90
22008;DHT22;11168;56.976;24.168;2024-03-23T02:37:46;6.10;99.90
22008;DHT22;11168;56.976;24.168;2024-03-23T02:40:12;6.10;99.90
22008;DHT22;11168;56.976;24.168;2024-03-23T02:42:41;6.10;99.90
22008;DHT22;11168;56.976;24.168;2024-03-23T02:45:07;6.10;99.90
22008;DHT22;11168;56.976;24.168;2024-03-23T02:47:33;6.10;99.90
22008;DHT22;11168;56.976;24.168;2024-03-23T02:49:59;6.10;99.90
22008;DHT22;11168;56.976;24.168;2024-03-23T02:52:28;6.10;99.90
22008;DHT22;11168;56.976;24.168;2024-03-23T02:54:54;6.10;99.90
22008;DHT22;11168;56.976;24.168;2024-03-23T02:57:20;6.10;99.90
22008;DHT22;11168;56.976;24.168;2024-03-23T02:59:46;6.10;99.90
22008;DHT22;11168;56.976;24.168;2024-03-23T03:02:13;6.10;99.90
22008;DHT22;11168;56.976;24.168;2024-03-23T03:04:39;6.10;99.90
22008;DHT22;11168;56.976;24.168;2024-03-23T03:07:06;6.10;99.90
22008;DHT22;11168;56.976;24.168;2024-03-23T03:09:32;6.10;99.90
22008;DHT22;11168;56.976;24.168;2024-03-23T03:11:59;6.00;99.90
22008;DHT22;11168;56.976;24.168;2024-03-23T03:14:25;6.00;99.90
22008;DHT22;11168;56.976;24.168;2024-03-23T03:16:50;6.00;99.90
22008;DHT22;11168;56.976;24.168;2024-03-23T03:19:17;6.00;99.90
22008;DHT22;11168;56.976;24.168;2024-03-23T03:21:43;5.90;99.90
22008;DHT22;11168;56.976;24.168;2024-03-23T03:24:09;5.90;99.90
22008;DHT22;11168;56.976;24.168;2024-03-23T03:26:37;5.80;99.90
22008;DHT22;11168;56.976;24.168;2024-03-23T03:29:03;5.80;99.90
22008;DHT22;11168;56.976;24.168;2024-03-23T03:31:30;5.80;99.90
22008;DHT22;11168;56.976;24.168;2024-03-23T03:33:56;5.70;99.90
22008;DHT22;11168;56.976;24.168;2024-03-23T03:36:24;5.70;99.90
22008;DHT22;11168;56.976;24.168;2024-03-23T03:38:50;5.70;99.90
22008;DHT22;11168;56.976;24.168;2024-03-23T03:41:18;5.60;99.90
22008;DHT22;11168;56.976;24.168;2024-03-23T03:43:44;5.60;99.90
22008;DHT22;11168;56.976;24.168;2024-03-23T03:46:10;5.60;99.90
22008;DHT22;11168;56.976;24.168;2024-03-23T03:48:37;5.60;99.90
22008;DHT22;11168;56.976;24.168;2024-03-23T03:51:03;5.60;99.90
22008;DHT22;11168;56.976;24.168;2024-03-23T03:53:30;5.50;99.90
22008;DHT22;11168;56.976;24.168;2024-03-23T03:56:00;5.50;99.90
22008;DHT22;11168;56.976;24.168;2024-03-23T03:58:26;5.40;99.90
22008;DHT22;11168;56.976;24.168;2024-03-23T04:00:52;5.40;99.90
22008;DHT22;11168;56.976;24.168;2024-03-23T04:03:19;5.40;99.90
22008;DHT22;11168;56.976;24.168;2024-03-23T04:05:52;5.30;99.90
22008;DHT22;11168;56.976;24.168;2024-03-23T04:08:18;5.30;99.90
22008;DHT22;11168;56.976;24.168;2024-03-23T04:10:45;5.30;99.90
22008;DHT22;11168;56.976;24.168;2024-03-23T04:13:12;5.20;99.90
22008;DHT22;11168;56.976;24.168;2024-03-23T04:15:39;5.10;99.90
22008;DHT22;11168;56.976;24.168;2024-03-23T04:18:05;5.10;99.90
22008;DHT22;11168;56.976;24.168;2024-03-23T04:20:31;5.00;99.90
22008;DHT22;11168;56.976;24.168;2024-03-23T04:22:58;5.00;99.90
22008;DHT22;11168;56.976;24.168;2024-03-23T04:25:26;4.90;99.90
22008;DHT22;11168;56.976;24.168;2024-03-23T04:27:53;4.90;99.90
22008;DHT22;11168;56.976;24.168;2024-03-23T04:30:19;4.90;99.90
22008;DHT22;11168;56.976;24.168;2024-03-23T04:32:45;4.80;99.90
22008;DHT22;11168;56.976;24.168;2024-03-23T04:35:11;4.80;99.90
22008;DHT22;11168;56.976;24.168;2024-03-23T04:37:38;4.80;99.90
22008;DHT22;11168;56.976;24.168;2024-03-23T04:40:06;4.80;99.90
22008;DHT22;11168;56.976;24.168;2024-03-23T04:42:33;4.80;99.90
22008;DHT22;11168;56.976;24.168;2024-03-23T04:44:59;4.80;99.90
22008;DHT22;11168;56.976;24.168;2024-03-23T04:47:25;4.80;99.90
22008;DHT22;11168;56.976;24.168;2024-03-23T04:49:52;4.80;99.90
22008;DHT22;11168;56.976;24.168;2024-03-23T04:52:18;4.80;99.90
22008;DHT22;11168;56.976;24.168;2024-03-23T04:54:44;4.80;99.90
22008;DHT22;11168;56.976;24.168;2024-03-23T04:57:11;4.80;99.90
22008;DHT22;11168;56.976;24.168;2024-03-23T04:59:37;4.80;99.90
22008;DHT22;11168;56.976;24.168;2024-03-23T05:02:03;4.80;99.90
22008;DHT22;11168;56.976;24.168;2024-03-23T05:04:29;4.80;99.90
22008;DHT22;11168;56.976;24.168;2024-03-23T05:06:55;4.80;99.90
22008;DHT22;11168;56.976;24.168;2024-03-23T05:09:22;4.80;99.90
22008;DHT22;11168;56.976;24.168;2024-03-23T05:11:49;4.80;99.90
22008;DHT22;11168;56.976;24.168;2024-03-23T05:14:16;4.70;99.90
22008;DHT22;11168;56.976;24.168;2024-03-23T05:16:42;4.70;99.90
22008;DHT22;11168;56.976;24.168;2024-03-23T05:19:08;4.60;99.90
22008;DHT22;11168;56.976;24.168;2024-03-23T05:21:34;4.60;99.90
22008;DHT22;11168;56.976;24.168;2024-03-23T05:24:00;4.50;99.90
22008;DHT22;11168;56.976;24.168;2024-03-23T05:26:26;4.50;99.90
22008;DHT22;11168;56.976;24.168;2024-03-23T05:28:54;4.50;99.90
22008;DHT22;11168;56.976;24.168;2024-03-23T05:31:27;4.50;99.90
22008;DHT22;11168;56.976;24.168;2024-03-23T05:33:53;4.50;99.90
22008;DHT22;11168;56.976;24.168;2024-03-23T05:36:20;4.60;99.90
22008;DHT22;11168;56.976;24.168;2024-03-23T05:38:46;4.60;99.90
22008;DHT22;11168;56.976;24.168;2024-03-23T05:41:12;4.60;99.90
22008;DHT22;11168;56.976;24.168;2024-03-23T05:43:38;4.60;99.90
22008;DHT22;11168;56.976;24.168;2024-03-23T05:46:05;4.60;99.90
22008;DHT22;11168;56.976;24.168;2024-03-23T05:48:37;4.60;99.90
22008;DHT22;11168;56.976;24.168;2024-03-23T05:51:03;4.60;99.90
22008;DHT22;11168;56.976;24.168;2024-03-23T05:53:32;4.60;99.90
22008;DHT22;11168;56.976;24.168;2024-03-23T05:56:02;4.70;99.90
22008;DHT22;11168;56.976;24.168;2024-03-23T05:58:33;4.70;99.90
22008;DHT22;11168;56.976;24.168;2024-03-23T06:01:00;4.70;99.90
22008;DHT22;11168;56.976;24.168;2024-03-23T06:03:29;4.60;99.90
22008;DHT22;11168;56.976;24.168;2024-03-23T06:05:56;4.70;99.90
22008;DHT22;11168;56.976;24.168;2024-03-23T06:08:23;4.70;99.90
22008;DHT22;11168;56.976;24.168;2024-03-23T06:10:52;4.80;99.90
22008;DHT22;11168;56.976;24.168;2024-03-23T06:13:18;4.80;99.90
22008;DHT22;11168;56.976;24.168;2024-03-23T06:15:47;4.80;99.90
22008;DHT22;11168;56.976;24.168;2024-03-23T06:18:17;4.90;99.90
22008;DHT22;11168;56.976;24.168;2024-03-23T06:20:43;4.90;99.90
22008;DHT22;11168;56.976;24.168;2024-03-23T06:23:09;5.00;99.90
22008;DHT22;11168;56.976;24.168;2024-03-23T06:25:35;5.00;99.90
22008;DHT22;11168;56.976;24.168;2024-03-23T06:28:03;5.20;99.90
22008;DHT22;11168;56.976;24.168;2024-03-23T06:30:31;5.20;99.90
22008;DHT22;11168;56.976;24.168;2024-03-23T06:32:57;5.30;99.90
22008;DHT22;11168;56.976;24.168;2024-03-23T06:35:23;5.30;99.90
22008;DHT22;11168;56.976;24.168;2024-03-23T06:37:49;5.30;99.90
22008;DHT22;11168;56.976;24.168;2024-03-23T06:40:15;5.30;99.90
22008;DHT22;11168;56.976;24.168;2024-03-23T06:42:44;5.40;99.90
22008;DHT22;11168;56.976;24.168;2024-03-23T06:45:10;5.30;99.90
22008;DHT22;11168;56.976;24.168;2024-03-23T06:47:36;5.30;99.90
22008;DHT22;11168;56.976;24.168;2024-03-23T06:50:03;5.40;99.90
22008;DHT22;11168;56.976;24.168;2024-03-23T06:52:32;5.40;99.90
22008;DHT22;11168;56.976;24.168;2024-03-23T06:54:58;5.50;99.90
22008;DHT22;11168;56.976;24.168;2024-03-23T06:57:24;5.60;99.90
22008;DHT22;11168;56.976;24.168;2024-03-23T06:59:50;5.80;99.90
22008;DHT22;11168;56.976;24.168;2024-03-23T07:02:18;6.00;99.90
22008;DHT22;11168;56.976;24.168;2024-03-23T07:04:51;6.00;99.90
22008;DHT22;11168;56.976;24.168;2024-03-23T07:07:17;6.00;99.90
22008;DHT22;11168;56.976;24.168;2024-03-23T07:09:43;6.00;99.90
22008;DHT22;11168;56.976;24.168;2024-03-23T07:12:09;6.40;99.90
22008;DHT22;11168;56.976;24.168;2024-03-23T07:14:35;6.80;99.90
22008;DHT22;11168;56.976;24.168;2024-03-23T07:17:01;7.10;99.90
22008;DHT22;11168;56.976;24.168;2024-03-23T07:19:27;6.80;99.90
22008;DHT22;11168;56.976;24.168;2024-03-23T07:21:54;6.50;99.90
22008;DHT22;11168;56.976;24.168;2024-03-23T07:24:20;6.50;99.90
22008;DHT22;11168;56.976;24.168;2024-03-23T07:26:46;7.00;99.90
22008;DHT22;11168;56.976;24.168;2024-03-23T07:29:13;7.20;99.90
22008;DHT22;11168;56.976;24.168;2024-03-23T07:31:39;7.20;99.90
22008;DHT22;11168;56.976;24.168;2024-03-23T07:34:07;7.20;99.90
22008;DHT22;11168;56.976;24.168;2024-03-23T07:36:33;7.00;99.90
22008;DHT22;11168;56.976;24.168;2024-03-23T07:39:02;7.00;99.90
22008;DHT22;11168;56.976;24.168;2024-03-23T07:41:32;7.40;99.90
22008;DHT22;11168;56.976;24.168;2024-03-23T07:43:58;7.80;99.90
22008;DHT22;11168;56.976;24.168;2024-03-23T07:46:24;7.60;99.90
22008;DHT22;11168;56.976;24.168;2024-03-23T07:48:53;7.40;99.90
22008;DHT22;11168;56.976;24.168;2024-03-23T07:51:23;7.20;99.90
22008;DHT22;11168;56.976;24.168;2024-03-23T07:53:49;7.10;99.90
22008;DHT22;11168;56.976;24.168;2024-03-23T07:56:15;7.10;99.90
22008;DHT22;11168;56.976;24.168;2024-03-23T07:58:42;7.00;99.90
22008;DHT22;11168;56.976;24.168;2024-03-23T08:01:09;7.30;99.90
22008;DHT22;11168;56.976;24.168;2024-03-23T08:03:37;7.90;99.90
22008;DHT22;11168;56.976;24.168;2024-03-23T08:06:21;7.70;99.90
22008;DHT22;11168;56.976;24.168;2024-03-23T08:08:50;7.40;99.90
22008;DHT22;11168;56.976;24.168;2024-03-23T08:11:19;7.30;99.90
22008;DHT22;11168;56.976;24.168;2024-03-23T08:13:45;7.90;99.90
22008;DHT22;11168;56.976;24.168;2024-03-23T08:16:11;8.60;99.90
22008;DHT22;11168;56.976;24.168;2024-03-23T08:18:39;9.80;99.90
22008;DHT22;11168;56.976;24.168;2024-03-23T08:21:06;10.60;99.90
22008;DHT22;11168;56.976;24.168;2024-03-23T08:23:33;10.70;99.90
22008;DHT22;11168;56.976;24.168;2024-03-23T08:26:05;10.80;99.90
22008;DHT22;11168;56.976;24.168;2024-03-23T08:28:32;10.30;99.90
22008;DHT22;11168;56.976;24.168;2024-03-23T08:31:01;9.60;99.90
22008;DHT22;11168;56.976;24.168;2024-03-23T08:33:28;9.00;99.90
22008;DHT22;11168;56.976;24.168;2024-03-23T08:36:05;9.80;99.90
22008;DHT22;11168;56.976;24.168;2024-03-23T08:38:32;9.60;99.90
22008;DHT22;11168;56.976;24.168;2024-03-23T08:43:38;9.70;99.90
22008;DHT22;11168;56.976;24.168;2024-03-23T08:46:09;10.60;99.90
22008;DHT22;11168;56.976;24.168;2024-03-23T08:48:39;10.20;99.90
22008;DHT22;11168;56.976;24.168;2024-03-23T08:51:07;9.70;99.90
22008;DHT22;11168;56.976;24.168;2024-03-23T08:53:35;10.50;99.90
22008;DHT22;11168;56.976;24.168;2024-03-23T08:56:01;10.90;99.90
22008;DHT22;11168;56.976;24.168;2024-03-23T08:58:35;11.90;99.90
22008;DHT22;11168;56.976;24.168;2024-03-23T09:01:06;13.00;99.90
22008;DHT22;11168;56.976;24.168;2024-03-23T09:03:32;12.80;99.90
22008;DHT22;11168;56.976;24.168;2024-03-23T09:06:00;12.50;99.90
22008;DHT22;11168;56.976;24.168;2024-03-23T09:08:26;11.90;99.90
22008;DHT22;11168;56.976;24.168;2024-03-23T09:10:53;11.80;99.90
22008;DHT22;11168;56.976;24.168;2024-03-23T09:13:20;11.20;99.90
22008;DHT22;11168;56.976;24.168;2024-03-23T09:15:47;11.00;99.90
22008;DHT22;11168;56.976;24.168;2024-03-23T09:18:14;11.20;99.90
22008;DHT22;11168;56.976;24.168;2024-03-23T09:20:40;11.70;99.90
22008;DHT22;11168;56.976;24.168;2024-03-23T09:23:07;11.90;99.90
22008;DHT22;11168;56.976;24.168;2024-03-23T09:25:37;12.00;99.90
22008;DHT22;11168;56.976;24.168;2024-03-23T09:28:05;12.80;99.90
22008;DHT22;11168;56.976;24.168;2024-03-23T09:30:32;13.90;99.90
22008;DHT22;11168;56.976;24.168;2024-03-23T09:33:02;14.40;99.90
22008;DHT22;11168;56.976;24.168;2024-03-23T09:35:28;14.80;99.90
22008;DHT22;11168;56.976;24.168;2024-03-23T09:37:54;14.50;99.90
22008;DHT22;11168;56.976;24.168;2024-03-23T09:40:24;13.40;99.90
22008;DHT22;11168;56.976;24.168;2024-03-23T09:42:52;13.60;99.90
22008;DHT22;11168;56.976;24.168;2024-03-23T09:45:28;14.60;99.90
22008;DHT22;11168;56.976;24.168;2024-03-23T09:47:55;14.70;99.90
22008;DHT22;11168;56.976;24.168;2024-03-23T09:50:22;14.60;99.90
22008;DHT22;11168;56.976;24.168;2024-03-23T09:52:48;14.10;99.90
22008;DHT22;11168;56.976;24.168;2024-03-23T09:55:15;15.00;99.90
22008;DHT22;11168;56.976;24.168;2024-03-23T09:57:41;15.30;99.90
22008;DHT22;11168;56.976;24.168;2024-03-23T10:00:08;17.00;99.90
22008;DHT22;11168;56.976;24.168;2024-03-23T10:02:37;16.90;99.90
22008;DHT22;11168;56.976;24.168;2024-03-23T10:05:03;16.70;99.90
22008;DHT22;11168;56.976;24.168;2024-03-23T10:07:30;15.90;99.90
22008;DHT22;11168;56.976;24.168;2024-03-23T10:09:56;15.20;99.90
22008;DHT22;11168;56.976;24.168;2024-03-23T10:12:23;14.80;99.90
22008;DHT22;11168;56.976;24.168;2024-03-23T10:14:52;14.70;99.90
22008;DHT22;11168;56.976;24.168;2024-03-23T10:17:20;14.10;99.90
22008;DHT22;11168;56.976;24.168;2024-03-23T10:19:53;13.80;99.90
22008;DHT22;11168;56.976;24.168;2024-03-23T10:22:23;12.60;99.90
22008;DHT22;11168;56.976;24.168;2024-03-23T10:24:53;12.30;99.90
22008;DHT22;11168;56.976;24.168;2024-03-23T10:27:20;13.70;99.90
22008;DHT22;11168;56.976;24.168;2024-03-23T10:29:47;14.00;99.90
22008;DHT22;11168;56.976;24.168;2024-03-23T10:32:16;13.60;99.90
22008;DHT22;11168;56.976;24.168;2024-03-23T10:34:44;13.30;99.90
22008;DHT22;11168;56.976;24.168;2024-03-23T10:37:11;12.10;99.90
22008;DHT22;11168;56.976;24.168;2024-03-23T10:39:39;12.60;99.90
22008;DHT22;11168;56.976;24.168;2024-03-23T10:42:08;12.30;99.90
22008;DHT22;11168;56.976;24.168;2024-03-23T10:44:36;12.30;99.90
22008;DHT22;11168;56.976;24.168;2024-03-23T10:47:03;13.90;99.90
22008;DHT22;11168;56.976;24.168;2024-03-23T10:49:35;13.20;99.90
22008;DHT22;11168;56.976;24.168;2024-03-23T10:52:03;13.70;99.90
22008;DHT22;11168;56.976;24.168;2024-03-23T10:54:33;14.10;99.90
22008;DHT22;11168;56.976;24.168;2024-03-23T11:00:04;14.90;99.90
22008;DHT22;11168;56.976;24.168;2024-03-23T11:02:32;15.20;99.90
22008;DHT22;11168;56.976;24.168;2024-03-23T11:04:58;14.50;99.90
22008;DHT22;11168;56.976;24.168;2024-03-23T11:09:50;14.50;99.90
22008;DHT22;11168;56.976;24.168;2024-03-23T11:15:05;13.30;99.90
22008;DHT22;11168;56.976;24.168;2024-03-23T11:17:33;12.50;99.90
22008;DHT22;11168;56.976;24.168;2024-03-23T11:20:00;11.60;99.90
22008;DHT22;11168;56.976;24.168;2024-03-23T11:25:17;12.00;99.90
22008;DHT22;11168;56.976;24.168;2024-03-23T11:27:56;12.00;99.90
22008;DHT22;11168;56.976;24.168;2024-03-23T11:30:27;12.00;99.90
22008;DHT22;11168;56.976;24.168;2024-03-23T11:32:59;12.70;99.90
22008;DHT22;11168;56.976;24.168;2024-03-23T11:35:34;13.40;99.90
22008;DHT22;11168;56.976;24.168;2024-03-23T11:38:16;13.80;99.90
22008;DHT22;11168;56.976;24.168;2024-03-23T11:40:52;13.50;99.90
22008;DHT22;11168;56.976;24.168;2024-03-23T11:43:19;13.50;99.90
22008;DHT22;11168;56.976;24.168;2024-03-23T11:45:52;14.50;99.90
22008;DHT22;11168;56.976;24.168;2024-03-23T11:48:21;15.00;99.90
22008;DHT22;11168;56.976;24.168;2024-03-23T11:50:49;15.00;99.90
22008;DHT22;11168;56.976;24.168;2024-03-23T11:53:19;13.90;99.90
22008;DHT22;11168;56.976;24.168;2024-03-23T11:55:50;13.00;99.90
22008;DHT22;11168;56.976;24.168;2024-03-23T11:58:18;12.60;99.90
22008;DHT22;11168;56.976;24.168;2024-03-23T12:00:52;11.90;99.90
22008;DHT22;11168;56.976;24.168;2024-03-23T12:03:19;11.50;99.90
22008;DHT22;11168;56.976;24.168;2024-03-23T12:05:51;11.50;99.90
22008;DHT22;11168;56.976;24.168;2024-03-23T12:08:29;11.60;99.90
22008;DHT22;11168;56.976;24.168;2024-03-23T12:11:14;11.60;99.90
22008;DHT22;11168;56.976;24.168;2024-03-23T12:13:48;11.60;99.90
22008;DHT22;11168;56.976;24.168;2024-03-23T12:16:21;11.10;99.90
22008;DHT22;11168;56.976;24.168;2024-03-23T12:18:53;10.70;99.90
22008;DHT22;11168;56.976;24.168;2024-03-23T12:21:30;10.60;99.90
22008;DHT22;11168;56.976;24.168;2024-03-23T12:23:59;10.40;99.90
22008;DHT22;11168;56.976;24.168;2024-03-23T12:26:28;10.20;99.90
22008;DHT22;11168;56.976;24.168;2024-03-23T12:28:55;10.30;99.90
22008;DHT22;11168;56.976;24.168;2024-03-23T12:31:21;10.40;99.90
22008;DHT22;11168;56.976;24.168;2024-03-23T12:33:47;10.50;99.90
22008;DHT22;11168;56.976;24.168;2024-03-23T12:36:14;10.50;99.90
22008;DHT22;11168;56.976;24.168;2024-03-23T12:38:40;10.40;99.90
22008;DHT22;11168;56.976;24.168;2024-03-23T12:41:06;10.40;99.90
22008;DHT22;11168;56.976;24.168;2024-03-23T12:43:32;10.50;99.90
22008;DHT22;11168;56.976;24.168;2024-03-23T12:45:58;10.50;99.90
22008;DHT22;11168;56.976;24.168;2024-03-23T12:48:25;10.40;99.90
22008;DHT22;11168;56.976;24.168;2024-03-23T12:50:54;10.40;99.90
22008;DHT22;11168;56.976;24.168;2024-03-23T12:53:23;10.50;99.90
22008;DHT22;11168;56.976;24.168;2024-03-23T12:55:49;10.60;99.90
22008;DHT22;11168;56.976;24.168;2024-03-23T12:58:15;10.60;99.90
22008;DHT22;11168;56.976;24.168;2024-03-23T13:00:41;10.60;99.90
22008;DHT22;11168;56.976;24.168;2024-03-23T13:03:07;10.70;99.90
22008;DHT22;11168;56.976;24.168;2024-03-23T13:05:40;10.90;99.90
22008;DHT22;11168;56.976;24.168;2024-03-23T13:08:06;10.80;99.90
22008;DHT22;11168;56.976;24.168;2024-03-23T13:10:34;10.80;99.90
22008;DHT22;11168;56.976;24.168;2024-03-23T13:13:01;10.80;99.90
22008;DHT22;11168;56.976;24.168;2024-03-23T13:15:27;10.80;99.90
22008;DHT22;11168;56.976;24.168;2024-03-23T13:17:55;10.70;99.90
22008;DHT22;11168;56.976;24.168;2024-03-23T13:20:21;10.70;99.90
22008;DHT22;11168;56.976;24.168;2024-03-23T13:22:47;10.50;99.90
22008;DHT22;11168;56.976;24.168;2024-03-23T13:25:13;10.30;99.90
22008;DHT22;11168;56.976;24.168;2024-03-23T13:27:39;10.30;99.90
22008;DHT22;11168;56.976;24.168;2024-03-23T13:30:05;10.30;99.90
22008;DHT22;11168;56.976;24.168;2024-03-23T13:32:32;10.20;99.90
22008;DHT22;11168;56.976;24.168;2024-03-23T13:35:01;10.10;99.90
22008;DHT22;11168;56.976;24.168;2024-03-23T13:37:27;10.30;99.90
22008;DHT22;11168;56.976;24.168;2024-03-23T13:39:54;10.40;99.90
22008;DHT22;11168;56.976;24.168;2024-03-23T13:42:21;10.30;99.90
22008;DHT22;11168;56.976;24.168;2024-03-23T13:44:47;10.30;99.90
22008;DHT22;11168;56.976;24.168;2024-03-23T13:47:13;10.40;99.90
22008;DHT22;11168;56.976;24.168;2024-03-23T13:49:40;10.30;99.90
22008;DHT22;11168;56.976;24.168;2024-03-23T13:52:06;10.30;99.90
22008;DHT22;11168;56.976;24.168;2024-03-23T13:54:33;10.40;99.90
22008;DHT22;11168;56.976;24.168;2024-03-23T13:56:59;10.50;99.90
22008;DHT22;11168;56.976;24.168;2024-03-23T13:59:25;10.50;99.90
22008;DHT22;11168;56.976;24.168;2024-03-23T14:01:51;10.50;99.90
22008;DHT22;11168;56.976;24.168;2024-03-23T14:04:18;10.50;99.90
22008;DHT22;11168;56.976;24.168;2024-03-23T14:06:48;10.60;99.90
22008;DHT22;11168;56.976;24.168;2024-03-23T14:09:15;10.60;99.90
22008;DHT22;11168;56.976;24.168;2024-03-23T14:11:46;10.60;99.90
22008;DHT22;11168;56.976;24.168;2024-03-23T14:14:12;10.50;99.90
22008;DHT22;11168;56.976;24.168;2024-03-23T14:16:38;10.40;99.90
22008;DHT22;11168;56.976;24.168;2024-03-23T14:19:04;10.40;99.90
22008;DHT22;11168;56.976;24.168;2024-03-23T14:21:33;10.40;99.90
22008;DHT22;11168;56.976;24.168;2024-03-23T14:24:01;10.40;99.90
22008;DHT22;11168;56.976;24.168;2024-03-23T14:26:29;10.30;99.90
22008;DHT22;11168;56.976;24.168;2024-03-23T14:28:55;10.30;99.90
22008;DHT22;11168;56.976;24.168;2024-03-23T14:31:21;10.30;99.90
22008;DHT22;11168;56.976;24.168;2024-03-23T14:33:47;10.30;99.90
22008;DHT22;11168;56.976;24.168;2024-03-23T14:36:14;10.30;99.90
22008;DHT22;11168;56.976;24.168;2024-03-23T14:38:40;10.30;99.90
22008;DHT22;11168;56.976;24.168;2024-03-23T14:41:09;10.20;99.90
22008;DHT22;11168;56.976;24.168;2024-03-23T14:43:35;10.00;99.90
22008;DHT22;11168;56.976;24.168;2024-03-23T14:46:09;10.00;99.90
22008;DHT22;11168;56.976;24.168;2024-03-23T14:48:36;9.80;99.90
22008;DHT22;11168;56.976;24.168;2024-03-23T14:51:03;9.90;99.90
22008;DHT22;11168;56.976;24.168;2024-03-23T14:53:34;9.80;99.60
22008;DHT22;11168;56.976;24.168;2024-03-23T14:56:01;9.80;99.90
22008;DHT22;11168;56.976;24.168;2024-03-23T14:58:28;9.70;99.90
22008;DHT22;11168;56.976;24.168;2024-03-23T15:01:06;9.70;99.40
22008;DHT22;11168;56.976;24.168;2024-03-23T15:03:36;9.70;99.90
22008;DHT22;11168;56.976;24.168;2024-03-23T15:06:02;9.70;99.90
22008;DHT22;11168;56.976;24.168;2024-03-23T15:08:28;9.70;99.90
22008;DHT22;11168;56.976;24.168;2024-03-23T15:10:58;9.70;99.90
22008;DHT22;11168;56.976;24.168;2024-03-23T15:13:24;9.60;99.90
22008;DHT22;11168;56.976;24.168;2024-03-23T15:15:52;9.60;99.90
22008;DHT22;11168;56.976;24.168;2024-03-23T15:18:18;9.50;99.90
22008;DHT22;11168;56.976;24.168;2024-03-23T15:20:55;9.50;99.90
22008;DHT22;11168;56.976;24.168;2024-03-23T15:23:22;9.40;99.90
22008;DHT22;11168;56.976;24.168;2024-03-23T15:25:55;9.40;99.90
22008;DHT22;11168;56.976;24.168;2024-03-23T15:28:25;9.40;99.90
22008;DHT22;11168;56.976;24.168;2024-03-23T15:30:58;9.40;99.90
22008;DHT22;11168;56.976;24.168;2024-03-23T15:33:24;9.40;99.90
22008;DHT22;11168;56.976;24.168;2024-03-23T15:35:50;9.40;99.90
22008;DHT22;11168;56.976;24.168;2024-03-23T15:38:16;9.40;99.90
22008;DHT22;11168;56.976;24.168;2024-03-23T15:40:54;9.30;99.90
22008;DHT22;11168;56.976;24.168;2024-03-23T15:43:20;9.30;99.90
22008;DHT22;11168;56.976;24.168;2024-03-23T15:46:03;9.30;99.90
22008;DHT22;11168;56.976;24.168;2024-03-23T15:48:30;9.20;99.90
22008;DHT22;11168;56.976;24.168;2024-03-23T15:51:02;9.20;99.90
22008;DHT22;11168;56.976;24.168;2024-03-23T15:53:30;9.10;99.90
22008;DHT22;11168;56.976;24.168;2024-03-23T15:56:01;9.10;99.90
22008;DHT22;11168;56.976;24.168;2024-03-23T15:58:29;9.10;99.90
22008;DHT22;11168;56.976;24.168;2024-03-23T16:03:25;9.00;99.90
22008;DHT22;11168;56.976;24.168;2024-03-23T16:05:53;8.90;99.90
22008;DHT22;11168;56.976;24.168;2024-03-23T16:08:20;8.90;99.90
22008;DHT22;11168;56.976;24.168;2024-03-23T16:10:47;8.90;99.90
22008;DHT22;11168;56.976;24.168;2024-03-23T16:13:13;8.80;99.90
22008;DHT22;11168;56.976;24.168;2024-03-23T16:15:40;8.70;99.90
22008;DHT22;11168;56.976;24.168;2024-03-23T16:18:07;8.70;99.90
22008;DHT22;11168;56.976;24.168;2024-03-23T16:20:33;8.70;99.90
22008;DHT22;11168;56.976;24.168;2024-03-23T16:23:00;8.60;99.90
22008;DHT22;11168;56.976;24.168;2024-03-23T16:25:26;8.60;99.90
22008;DHT22;11168;56.976;24.168;2024-03-23T16:27:53;8.60;99.90
22008;DHT22;11168;56.976;24.168;2024-03-23T16:30:20;8.50;99.90
22008;DHT22;11168;56.976;24.168;2024-03-23T16:32:47;8.40;99.90
22008;DHT22;11168;56.976;24.168;2024-03-23T16:35:13;8.40;99.90
22008;DHT22;11168;56.976;24.168;2024-03-23T16:37:40;8.40;99.90